KVJI/VJI METAR and TAF weather

Enter ICAO airport designator
Station Type Date Time Source
KVJI METAR 2021/01/17 17:55 UTC NOAA

KVJI 171755Z AUTO 25006KT 10SM SCT021 OVC033 01/M04 A2982 RMK AO2 T00081041 10008 21008


Station Type Date Time Source
KVJI Decoded METAR 2021/01/17 17:55 UTC NOAA

Abingdon, VA, United States (KVJI) 36-41N 082-02W
Jan 17, 2021 - 12:55 PM EST / 2021.01.17 1755 UTC
Wind: from the WSW (250 degrees) at 7 MPH (6 KT):0
Visibility: 10 mile(s):0
Sky conditions: overcast
Temperature: 33.4 F (0.8 C)
Windchill: 26 F (-3 C):1
Dew Point: 24.6 F (-4.1 C)
Relative Humidity: 69%
Pressure (altimeter): 29.82 in. Hg (1009 hPa)
ob: KVJI 171755Z AUTO 25006KT 10SM SCT021 OVC033 01/M04 A2982 RMK AO2 T00081041 10008 21008
cycle: 18

Station Type Date Time Source
KVJI TAF UTC NOAA

Error!

Example: see airport list